Historyczne dane pomiarowe

Dodano dane terminowe – wersja testowa.

Dane z okresu 1951-2019

Wersja bazy: 1.34 [2019-03-16, lista zmian], aktualizacja planowana na 2019-04-15

Dane meteo z obszaru Polski uzyskane na podstawie danych udostępnionych przez Instytut Meteorologii i Gospodarki Wodnej – Państwowy Instytut Badawczy.

 

Wybierz Datę:    

       

TemperaturaWilgotnośćZachmurzenieWiatrCiśnienieWidzialnośćZjawiska
 Data    tng td wb rh cc ccl cl cm ch dir g1 g2 mslp ppp      
1999-06-20 00:00:00 15.1--- 14.1 14.594wxwxwx2wx--1018.4 995.5 0.0---wx
1999-06-20 01:00:00 14.6--- 13.9 14.296wxwx2wx--1018.1 995.1----wx
1999-06-20 02:00:00 14.2--- 13.7 13.997wxwx2wx--1017.7 994.7----wx
1999-06-20 03:00:00 12.9--- 12.6 12.798wxwx1wx--1017.5 994.4----wx
1999-06-20 04:00:00 12.7--- 12.7 12.7100wxwx1wx--1017.4 994.3----wxw1
1999-06-20 05:00:00 13.5--- 13.5 13.5100wxwx1wx--1016.9 993.9----wxw1
1999-06-20 06:00:00 13.5--- 13.5 13.5100wxwx2wx--1016.9 993.9 0.0---wx
1999-06-20 07:00:00 15.3--- 15.0 15.198wxwxwx2wx--1016.7 993.8----wx
1999-06-20 08:00:00 17.9--- 14.8 16.082wxwxwxwx2wx--1016.3 993.6----wx
1999-06-20 09:00:00 18.3--- 14.9 16.281wxwxwxwx2wx--1016.0 993.4----wxw1
1999-06-20 10:00:00 19.0--- 14.8 16.477wxwxwxwx2wx--1015.4 992.8----wx
1999-06-20 11:00:00 20.4--- 14.6 16.869wxwxwxwx2wx--1014.4 992.0----wx
1999-06-20 12:00:00 21.0--- 13.9 16.664wxwxwxwx3wx--1013.4 991.0 0.0---wxw1
1999-06-20 13:00:00 21.2--- 13.0 16.259wxwxwxwx3wx--1012.5 990.2----wx
1999-06-20 14:00:00 20.4--- 12.8 15.862wxwxwxwx3wx--1012.1 989.7----wx
1999-06-20 15:00:00 21.0--- 13.7 16.563wxwxwxwx2wx--1011.2 988.9----wx
1999-06-20 16:00:00 21.8--- 11.8 15.853wxwxwxwx4wx--1010.4 988.1----wx
1999-06-20 17:00:00 21.6--- 12.7 16.257wxwxwxwx3wx--1009.8 987.5----wx
1999-06-20 18:00:00 20.6--- 12.8 15.961wxwxwx2wx--1009.3 987.0 0.0---wx
1999-06-20 19:00:00 19.2--- 12.9 15.467wxwxwxwx1wx--1009.1 986.7----wx
1999-06-20 20:00:00 18.0--- 13.4 15.274wxwxwxwx1wx--1009.2 986.7----wx
1999-06-20 21:00:00 17.4--- 13.6 15.178wxwxwxwx2wx--1008.7 986.2----wx
1999-06-20 22:00:00 17.2--- 13.0 14.776wxwxwx2wx--1008.5 985.9----wx
1999-06-20 23:00:00 16.1--- 10.7 13.070wxwxwx2wx--1008.0 985.4----wx

 

Źródłem pochodzenia danych jest Instytut Meteorologii i Gospodarki Wodnej – Państwowy Instytut Badawczy. Dane Instytutu Meteorologii i Gospodarki Wodnej – Państwowego Instytutu Badawczego zostały przetworzone.

Dane źródłowe można odnaleźć na stronie https://dane.imgw.pl